createdAt,value
2023-05-17T00:00:00.888Z,11.98
2023-05-17T00:02:29.115Z,31.90
2023-05-17T00:04:57.432Z,44.05
2023-05-17T00:07:25.853Z,43.85
2023-05-17T00:09:54.076Z,46.17
2023-05-17T00:12:22.308Z,45.58
2023-05-17T00:14:50.560Z,43.72
2023-05-17T00:17:21.203Z,43.80
2023-05-17T00:19:49.896Z,46.85
2023-05-17T00:22:18.290Z,44.08
2023-05-17T00:24:46.653Z,43.85
2023-05-17T00:27:14.824Z,43.28
2023-05-17T00:29:43.697Z,41.80
2023-05-17T00:32:12.426Z,33.55
2023-05-17T00:34:40.794Z,34.40
2023-05-17T00:37:09.077Z,30.15
2023-05-17T00:39:37.342Z,30.20
2023-05-17T00:42:12.556Z,30.60
2023-05-17T00:44:40.865Z,27.25
2023-05-17T00:47:09.288Z,26.15
2023-05-17T00:49:37.725Z,24.50
2023-05-17T00:52:06.625Z,23.55
2023-05-17T00:54:35.577Z,23.08
2023-05-17T00:57:04.575Z,21.98
2023-05-17T00:59:35.557Z,22.02
2023-05-17T01:02:05.225Z,23.88
2023-05-17T01:04:34.314Z,26.33
2023-05-17T01:07:02.906Z,24.02
2023-05-17T01:09:31.586Z,22.15
2023-05-17T01:12:14.895Z,22.75
2023-05-17T01:14:55.069Z,19.98
2023-05-17T01:17:40.820Z,20.58
2023-05-17T01:20:29.739Z,18.92
2023-05-17T01:23:22.840Z,18.42
2023-05-17T01:25:58.584Z,17.25
2023-05-17T01:28:28.133Z,15.98
2023-05-17T01:30:58.029Z,15.43
2023-05-17T01:33:26.946Z,14.77
2023-05-17T01:35:55.401Z,15.93
2023-05-17T01:38:23.707Z,14.90
2023-05-17T01:41:08.551Z,15.13
2023-05-17T01:43:53.042Z,15.07
2023-05-17T01:46:30.624Z,17.08
2023-05-17T01:49:12.957Z,16.10
2023-05-17T01:52:19.420Z,16.63
2023-05-17T01:54:50.711Z,18.92
2023-05-17T01:57:23.132Z,20.70
2023-05-17T01:59:53.209Z,19.88
2023-05-17T02:02:21.683Z,18.52
2023-05-17T02:04:49.890Z,18.17
2023-05-17T02:07:18.220Z,17.55
2023-05-17T02:09:46.458Z,17.52
2023-05-17T02:12:14.729Z,18.83
2023-05-17T02:14:42.971Z,18.73
2023-05-17T02:17:11.217Z,18.15
2023-05-17T02:19:39.732Z,18.48
2023-05-17T02:22:08.428Z,18.23
2023-05-17T02:24:39.611Z,18.10
2023-05-17T02:27:08.049Z,18.05
2023-05-17T02:29:36.233Z,18.85
2023-05-17T02:32:04.717Z,19.20
2023-05-17T02:34:33.150Z,17.80
2023-05-17T02:39:09.320Z,16.65
2023-05-17T02:41:39.325Z,18.80
2023-05-17T02:44:07.543Z,16.45
2023-05-17T02:46:38.195Z,17.60
2023-05-17T02:49:06.871Z,16.92
2023-05-17T02:51:35.109Z,18.63
2023-05-17T02:56:05.510Z,17.13
2023-05-17T02:58:34.676Z,17.45
2023-05-17T03:01:03.074Z,16.27
2023-05-17T03:03:32.469Z,17.23
2023-05-17T03:06:05.244Z,17.60
2023-05-17T03:08:34.364Z,17.27
2023-05-17T03:11:03.830Z,16.95
2023-05-17T03:13:32.168Z,17.75
2023-05-17T03:16:03.739Z,15.57
2023-05-17T03:18:32.477Z,14.50
2023-05-17T03:21:00.925Z,14.93
2023-05-17T03:23:29.075Z,19.15
2023-05-17T03:26:00.716Z,16.48
2023-05-17T03:28:33.645Z,16.92
2023-05-17T03:31:02.312Z,16.52
2023-05-17T03:33:33.585Z,18.67
2023-05-17T03:36:03.256Z,19.73
2023-05-17T03:38:40.710Z,16.70
2023-05-17T03:41:09.502Z,20.95
2023-05-17T03:43:38.550Z,20.00
2023-05-17T03:46:12.860Z,17.10
2023-05-17T03:48:42.054Z,15.23
2023-05-17T03:51:12.023Z,14.02
2023-05-17T03:53:40.685Z,12.05
2023-05-17T03:56:09.560Z,11.38
2023-05-17T03:58:39.193Z,11.95
2023-05-17T04:01:07.508Z,11.00
2023-05-17T04:03:36.548Z,11.48
2023-05-17T04:06:06.236Z,12.25
2023-05-17T04:08:36.210Z,12.60
2023-05-17T04:11:04.341Z,12.20
2023-05-17T04:13:32.757Z,11.15
2023-05-17T04:16:01.155Z,11.68
2023-05-17T04:18:29.711Z,11.27
2023-05-17T04:20:57.906Z,11.32
2023-05-17T04:23:26.215Z,10.13
2023-05-17T04:25:54.539Z,11.05
2023-05-17T04:28:23.301Z,10.57
2023-05-17T04:30:51.928Z,10.10
2023-05-17T04:33:20.862Z,10.15
2023-05-17T04:35:49.292Z,10.27
2023-05-17T04:38:18.620Z,9.38
2023-05-17T04:40:46.898Z,9.57
2023-05-17T04:43:15.541Z,9.68
2023-05-17T04:45:44.307Z,9.00
2023-05-17T04:48:12.721Z,8.48
2023-05-17T04:50:41.095Z,9.00
2023-05-17T04:53:09.436Z,7.95
2023-05-17T04:55:38.423Z,8.68
2023-05-17T04:58:06.805Z,8.70
2023-05-17T05:00:35.658Z,7.97
2023-05-17T05:03:05.934Z,9.18
2023-05-17T05:05:44.894Z,8.32
2023-05-17T05:08:15.567Z,8.32
2023-05-17T05:10:46.535Z,7.47
2023-05-17T05:13:17.624Z,9.32
2023-05-17T05:15:46.596Z,8.18
2023-05-17T05:18:15.082Z,9.68
2023-05-17T05:20:44.657Z,10.45
2023-05-17T05:23:13.136Z,11.55
2023-05-17T05:25:43.832Z,12.68
2023-05-17T05:28:12.802Z,11.27
2023-05-17T05:30:42.284Z,11.15
2023-05-17T05:33:11.093Z,10.40
2023-05-17T05:35:39.498Z,10.15
2023-05-17T05:38:08.589Z,9.30
2023-05-17T05:40:37.439Z,9.82
2023-05-17T05:43:05.756Z,9.85
2023-05-17T05:45:34.173Z,10.07
2023-05-17T05:48:04.713Z,10.43
2023-05-17T05:50:34.890Z,9.13
2023-05-17T05:53:18.034Z,8.52
2023-05-17T05:55:52.319Z,8.13
2023-05-17T05:58:24.627Z,7.82
2023-05-17T06:00:53.572Z,7.40
2023-05-17T06:03:21.884Z,8.45
2023-05-17T06:05:50.275Z,7.78
2023-05-17T06:08:18.781Z,8.57
2023-05-17T06:10:47.489Z,9.27
2023-05-17T06:13:15.768Z,9.75
2023-05-17T06:15:44.036Z,9.98
2023-05-17T06:18:12.493Z,11.07
2023-05-17T06:20:40.931Z,10.68
2023-05-17T06:24:05.392Z,17.23
2023-05-17T06:26:33.808Z,15.20
2023-05-17T06:29:01.943Z,11.07
2023-05-17T06:31:30.316Z,10.60
2023-05-17T06:33:58.507Z,11.88
2023-05-17T06:36:26.879Z,12.52
2023-05-17T06:38:55.186Z,13.68
2023-05-17T06:41:23.909Z,12.05
2023-05-17T06:43:58.121Z,11.45
2023-05-17T06:46:26.342Z,13.80
2023-05-17T06:48:54.616Z,11.57
2023-05-17T06:51:23.295Z,13.57
2023-05-17T06:53:51.512Z,14.13
2023-05-17T06:56:19.846Z,14.52
2023-05-17T06:58:48.075Z,15.43
2023-05-17T07:01:16.479Z,14.80
2023-05-17T07:03:44.766Z,14.27
2023-05-17T07:06:13.150Z,15.02
2023-05-17T07:08:41.363Z,14.10
2023-05-17T07:11:09.663Z,15.23
2023-05-17T07:13:37.959Z,15.85
2023-05-17T07:16:08.710Z,14.70
2023-05-17T07:18:37.364Z,15.32
2023-05-17T07:21:12.894Z,13.70
2023-05-17T07:23:41.507Z,11.98
2023-05-17T07:26:09.605Z,11.63
2023-05-17T07:28:39.484Z,11.23
2023-05-17T07:31:07.871Z,10.95
2023-05-17T07:33:36.161Z,10.57
2023-05-17T07:36:04.882Z,10.80
2023-05-17T07:38:33.589Z,10.65
2023-05-17T07:41:02.147Z,10.07
2023-05-17T07:43:30.620Z,8.93
2023-05-17T07:45:58.983Z,8.77
2023-05-17T07:48:27.306Z,9.05
2023-05-17T07:50:56.012Z,9.52
2023-05-17T07:53:25.506Z,9.02
2023-05-17T07:55:53.759Z,8.25
2023-05-17T07:58:22.214Z,6.93
2023-05-17T08:00:50.390Z,7.88
2023-05-17T08:03:18.689Z,8.38
2023-05-17T08:05:46.873Z,7.85
2023-05-17T08:08:15.238Z,7.88
2023-05-17T08:10:43.561Z,7.15
2023-05-17T08:13:11.673Z,6.82
2023-05-17T08:15:40.079Z,7.18
2023-05-17T08:18:08.457Z,6.35
2023-05-17T08:20:37.309Z,7.63
2023-05-17T08:23:05.657Z,6.55
2023-05-17T08:25:34.005Z,6.43
2023-05-17T08:28:02.370Z,8.57
2023-05-17T08:30:30.617Z,8.68
2023-05-17T08:32:58.899Z,7.80
2023-05-17T08:35:28.845Z,7.80
2023-05-17T08:37:57.586Z,6.90
2023-05-17T08:40:25.960Z,7.03
2023-05-17T08:42:54.595Z,7.57
2023-05-17T08:45:22.917Z,7.47
2023-05-17T08:47:52.274Z,7.50
2023-05-17T08:50:20.819Z,7.60
2023-05-17T08:52:50.402Z,7.07
2023-05-17T08:55:18.939Z,6.63
2023-05-17T08:57:47.691Z,6.97
2023-05-17T09:00:20.811Z,6.53
2023-05-17T09:02:49.553Z,6.35
2023-05-17T09:05:17.866Z,6.20
2023-05-17T09:07:48.012Z,8.25
2023-05-17T09:10:16.237Z,7.13
2023-05-17T09:12:45.421Z,8.10
2023-05-17T09:15:15.327Z,7.65
2023-05-17T09:17:44.230Z,9.60
2023-05-17T09:20:12.574Z,7.72
2023-05-17T09:22:41.032Z,5.97
2023-05-17T09:25:09.920Z,10.07
2023-05-17T09:27:38.119Z,11.35
2023-05-17T09:30:12.206Z,11.77
2023-05-17T09:32:45.414Z,12.75
2023-05-17T09:35:13.846Z,15.90
2023-05-17T09:37:43.914Z,14.15
2023-05-17T09:40:27.372Z,10.82
2023-05-17T09:43:04.520Z,12.10
2023-05-17T09:45:36.703Z,12.05
2023-05-17T09:48:18.372Z,9.48
2023-05-17T09:50:48.422Z,8.82
2023-05-17T09:53:30.057Z,9.38
2023-05-17T09:56:03.050Z,10.93
2023-05-17T09:58:33.886Z,6.05
2023-05-17T10:01:08.822Z,7.57
2023-05-17T10:03:38.174Z,14.27
2023-05-17T10:06:13.236Z,17.42
2023-05-17T10:08:56.499Z,17.02
2023-05-17T10:11:38.304Z,20.02
2023-05-17T10:14:16.468Z,15.93
2023-05-17T10:16:45.940Z,18.67
2023-05-17T10:19:14.794Z,23.38
2023-05-17T10:21:43.778Z,25.75
2023-05-17T10:24:12.940Z,17.42
2023-05-17T10:26:42.071Z,19.05
2023-05-17T10:29:11.523Z,23.70
2023-05-17T10:31:43.931Z,17.75
2023-05-17T10:34:13.291Z,11.88
2023-05-17T10:36:43.945Z,20.73
2023-05-17T10:39:14.810Z,8.05
2023-05-17T10:41:45.470Z,7.35
2023-05-17T10:44:15.839Z,7.22
2023-05-17T10:46:56.041Z,9.25
2023-05-17T10:49:32.132Z,6.40
2023-05-17T10:52:12.943Z,4.57
2023-05-17T10:54:44.666Z,6.40
2023-05-17T10:57:49.970Z,3.40
2023-05-17T11:00:24.499Z,9.23
2023-05-17T11:02:52.704Z,7.95
2023-05-17T11:05:27.913Z,7.35
2023-05-17T11:08:16.744Z,8.30
2023-05-17T11:11:14.145Z,5.63
2023-05-17T11:13:51.476Z,6.68
2023-05-17T11:16:23.026Z,8.38
2023-05-17T11:18:53.289Z,3.88
2023-05-17T11:21:23.154Z,5.90
2023-05-17T11:23:56.440Z,8.20
2023-05-17T11:26:33.671Z,5.10
2023-05-17T11:29:08.977Z,3.97
2023-05-17T11:31:43.142Z,7.15
2023-05-17T11:34:12.761Z,5.05
2023-05-17T11:36:52.571Z,4.63
2023-05-17T11:39:24.984Z,5.03
2023-05-17T11:41:57.761Z,5.65
2023-05-17T11:44:33.918Z,5.70
2023-05-17T11:47:11.246Z,6.45
2023-05-17T11:49:40.549Z,7.35
2023-05-17T11:52:09.748Z,4.88
2023-05-17T11:54:40.437Z,3.80
2023-05-17T11:57:10.133Z,7.88
2023-05-17T11:59:39.480Z,4.03
2023-05-17T12:02:08.019Z,8.70
2023-05-17T12:04:38.538Z,4.25
2023-05-17T12:07:10.251Z,4.70
2023-05-17T12:09:40.037Z,5.97
2023-05-17T12:12:08.693Z,4.63
2023-05-17T12:14:40.926Z,6.93
2023-05-17T12:17:11.279Z,5.43
2023-05-17T12:19:40.052Z,8.13
2023-05-17T12:22:12.757Z,3.67
2023-05-17T12:24:43.121Z,4.10
2023-05-17T12:27:12.104Z,5.45
2023-05-17T12:29:40.601Z,11.30
2023-05-17T12:32:10.730Z,7.22
2023-05-17T12:34:39.592Z,6.03
2023-05-17T12:37:08.475Z,7.22
2023-05-17T12:39:37.306Z,4.93
2023-05-17T12:42:05.890Z,4.97
2023-05-17T12:44:34.445Z,4.65
2023-05-17T12:47:05.471Z,6.38
2023-05-17T12:49:39.086Z,5.90
2023-05-17T12:52:07.649Z,7.65
2023-05-17T12:54:35.803Z,6.20
2023-05-17T12:57:22.174Z,5.93
2023-05-17T12:59:53.389Z,6.20
2023-05-17T13:02:22.205Z,6.53
2023-05-17T13:04:50.526Z,5.82
2023-05-17T13:07:27.835Z,4.25
2023-05-17T13:09:56.055Z,4.75
2023-05-17T13:12:25.242Z,4.32
2023-05-17T13:14:53.885Z,5.07
2023-05-17T13:17:36.788Z,4.40
2023-05-17T13:20:10.377Z,7.28
2023-05-17T13:22:46.498Z,4.55
2023-05-17T13:25:15.986Z,6.40
2023-05-17T13:27:48.440Z,5.38
2023-05-17T13:30:17.286Z,4.72
2023-05-17T13:32:52.398Z,4.32
2023-05-17T13:35:20.761Z,5.10
2023-05-17T13:37:48.984Z,6.15
2023-05-17T13:40:17.466Z,4.00
2023-05-17T13:42:45.905Z,5.60
2023-05-17T13:45:14.122Z,5.05
2023-05-17T13:47:42.600Z,3.60
2023-05-17T13:50:17.179Z,5.07
2023-05-17T13:52:45.555Z,5.10
2023-05-17T13:55:13.708Z,4.55
2023-05-17T13:57:42.037Z,4.93
2023-05-17T14:00:10.871Z,6.65
2023-05-17T14:02:39.247Z,10.93
2023-05-17T14:05:07.656Z,4.68
2023-05-17T14:07:36.300Z,4.25
2023-05-17T14:10:04.804Z,4.43
2023-05-17T14:12:33.072Z,4.75
2023-05-17T14:15:01.567Z,6.68
2023-05-17T14:17:29.694Z,4.72
2023-05-17T14:19:58.134Z,5.40
2023-05-17T14:22:26.453Z,2.70
2023-05-17T14:24:54.963Z,3.42
2023-05-17T14:27:23.195Z,3.17
2023-05-17T14:29:51.446Z,8.63
2023-05-17T14:32:19.856Z,13.73
2023-05-17T14:34:48.182Z,15.88
2023-05-17T14:37:16.368Z,12.18
2023-05-17T14:39:55.239Z,6.05
2023-05-17T14:42:32.972Z,8.35
2023-05-17T14:45:01.437Z,27.50
2023-05-17T14:47:29.596Z,47.80
2023-05-17T14:49:58.026Z,9.73
2023-05-17T14:52:26.297Z,7.85
2023-05-17T14:54:54.712Z,4.00
2023-05-17T14:57:25.631Z,7.45
2023-05-17T14:59:53.946Z,4.00
2023-05-17T15:02:22.218Z,34.53
2023-05-17T15:04:50.519Z,41.33
2023-05-17T15:07:19.009Z,20.33
2023-05-17T15:09:47.216Z,3.85
2023-05-17T15:12:15.566Z,3.33
2023-05-17T15:14:43.753Z,18.23
2023-05-17T15:17:12.056Z,6.95
2023-05-17T15:19:40.623Z,5.57
2023-05-17T15:22:08.907Z,13.63
2023-05-17T15:24:37.247Z,2.80
2023-05-17T15:27:06.162Z,2.88
2023-05-17T15:29:34.855Z,5.05
2023-05-17T15:32:03.061Z,4.03
2023-05-17T15:34:31.259Z,5.22
2023-05-17T15:37:02.428Z,9.57
2023-05-17T15:39:31.114Z,9.32
2023-05-17T15:41:59.371Z,7.15
2023-05-17T15:44:27.620Z,7.43
2023-05-17T15:46:55.970Z,6.13
2023-05-17T15:49:24.239Z,4.75
2023-05-17T15:51:52.372Z,5.40
2023-05-17T15:54:20.690Z,3.53
2023-05-17T15:56:48.937Z,5.93
2023-05-17T15:59:17.532Z,6.43
2023-05-17T16:01:45.661Z,3.70
2023-05-17T16:04:14.439Z,7.97
2023-05-17T16:06:43.010Z,6.40
2023-05-17T16:09:11.380Z,6.38
2023-05-17T16:11:39.643Z,4.45
2023-05-17T16:14:07.904Z,6.82
2023-05-17T16:16:38.368Z,3.90
2023-05-17T16:19:06.946Z,3.70
2023-05-17T16:21:35.297Z,6.15
2023-05-17T16:24:03.570Z,4.40
2023-05-17T16:26:31.975Z,5.80
2023-05-17T16:29:00.238Z,7.53
2023-05-17T16:31:28.695Z,9.32
2023-05-17T16:33:57.149Z,7.10
2023-05-17T16:36:25.432Z,8.95
2023-05-17T16:38:53.662Z,5.38
2023-05-17T16:41:21.907Z,5.22
2023-05-17T16:43:50.099Z,9.82
2023-05-17T16:46:18.350Z,8.18
2023-05-17T16:48:46.612Z,4.82
2023-05-17T16:51:15.033Z,3.60
2023-05-17T16:53:43.169Z,3.17
2023-05-17T16:56:11.471Z,5.25
2023-05-17T16:58:39.790Z,7.47
2023-05-17T17:01:16.087Z,6.53
2023-05-17T17:03:44.502Z,7.18
2023-05-17T17:06:12.832Z,5.57
2023-05-17T17:08:42.416Z,7.10
2023-05-17T17:11:10.621Z,4.60
2023-05-17T17:13:38.821Z,5.50
2023-05-17T17:16:07.506Z,7.20
2023-05-17T17:18:35.722Z,5.93
2023-05-17T17:21:06.949Z,3.45
2023-05-17T17:23:36.122Z,28.77
2023-05-17T17:26:04.659Z,10.75
2023-05-17T17:28:33.006Z,5.90
2023-05-17T17:31:02.666Z,8.15
2023-05-17T17:33:31.058Z,4.45
2023-05-17T17:40:43.597Z,78.22
2023-05-17T17:43:11.770Z,8.80
2023-05-17T17:45:46.100Z,5.97
2023-05-17T17:48:14.648Z,4.63
2023-05-17T17:50:42.824Z,5.50
2023-05-17T17:53:11.218Z,4.15
2023-05-17T17:55:39.333Z,8.73
2023-05-17T17:58:07.760Z,6.55
2023-05-17T18:00:36.022Z,5.75
2023-05-17T18:03:04.370Z,5.05
2023-05-17T18:05:32.695Z,5.72
2023-05-17T18:08:03.922Z,5.80
2023-05-17T18:10:32.410Z,6.55
2023-05-17T18:13:00.558Z,6.80
2023-05-17T18:15:29.045Z,4.70
2023-05-17T18:17:58.235Z,4.45
2023-05-17T18:20:26.662Z,5.65
2023-05-17T18:22:55.254Z,7.20
2023-05-17T18:25:23.411Z,6.00
2023-05-17T18:27:51.625Z,14.55
2023-05-17T18:30:19.907Z,31.23
2023-05-17T18:32:48.299Z,23.52
2023-05-17T18:35:16.477Z,9.07
2023-05-17T18:37:44.786Z,7.97
2023-05-17T18:40:14.211Z,10.73
2023-05-17T18:42:42.706Z,6.93
2023-05-17T18:45:11.457Z,5.18
2023-05-17T18:47:39.656Z,6.63
2023-05-17T18:50:08.542Z,5.43
2023-05-17T18:52:36.983Z,4.95
2023-05-17T18:55:05.292Z,11.75
2023-05-17T18:57:33.495Z,47.40
2023-05-17T19:00:01.695Z,37.90
2023-05-17T19:02:29.971Z,18.10
2023-05-17T19:04:58.079Z,12.43
2023-05-17T19:07:26.552Z,58.35
2023-05-17T19:09:55.061Z,128.93
2023-05-17T19:12:23.151Z,87.07
2023-05-17T19:14:51.470Z,68.93
2023-05-17T19:17:19.686Z,43.42
2023-05-17T19:19:47.989Z,13.57
2023-05-17T19:22:16.297Z,13.88
2023-05-17T19:24:44.535Z,11.02
2023-05-17T19:27:12.938Z,11.15
2023-05-17T19:29:41.440Z,32.22
2023-05-17T19:32:09.709Z,16.73
2023-05-17T19:34:37.865Z,72.57
2023-05-17T19:37:06.373Z,305.27
2023-05-17T19:39:34.551Z,150.95
2023-05-17T19:42:03.008Z,75.70
2023-05-17T19:44:31.206Z,110.60
2023-05-17T19:46:59.490Z,37.47
2023-05-17T19:49:30.821Z,45.47
2023-05-17T19:51:59.048Z,33.17
2023-05-17T19:54:29.300Z,18.83
2023-05-17T19:56:58.563Z,6.97
2023-05-17T19:59:26.822Z,66.00
2023-05-17T20:01:55.204Z,257.38
2023-05-17T20:04:23.773Z,140.38
2023-05-17T20:06:52.513Z,232.93
2023-05-17T20:09:20.825Z,88.30
2023-05-17T20:11:49.467Z,136.60
2023-05-17T20:14:17.913Z,125.57
2023-05-17T20:16:46.219Z,105.85
2023-05-17T20:19:14.607Z,51.33
2023-05-17T20:21:43.107Z,87.82
2023-05-17T20:24:11.363Z,10.05
2023-05-17T20:26:40.014Z,9.27
2023-05-17T20:29:09.127Z,13.07
2023-05-17T20:31:37.908Z,74.97
2023-05-17T20:34:06.551Z,64.72
2023-05-17T20:36:36.134Z,47.50
2023-05-17T20:39:04.785Z,29.90
2023-05-17T20:41:33.047Z,12.23
2023-05-17T20:44:01.350Z,10.85
2023-05-17T20:46:30.064Z,8.90
2023-05-17T20:48:58.283Z,7.95
2023-05-17T20:51:26.667Z,10.30
2023-05-17T20:53:55.140Z,11.93
2023-05-17T20:56:23.218Z,12.48
2023-05-17T20:58:51.621Z,7.20
2023-05-17T21:01:20.020Z,13.27
2023-05-17T21:03:48.275Z,13.68
2023-05-17T21:06:16.687Z,18.60
2023-05-17T21:08:45.068Z,10.85
2023-05-17T21:11:13.399Z,8.68
2023-05-17T21:13:41.770Z,9.48
2023-05-17T21:16:10.132Z,7.43
2023-05-17T21:18:38.278Z,6.70
2023-05-17T21:21:06.689Z,6.28
2023-05-17T21:23:35.148Z,5.55
2023-05-17T21:26:03.501Z,6.00
2023-05-17T21:28:31.781Z,6.78
2023-05-17T21:31:00.117Z,14.10
2023-05-17T21:33:31.308Z,9.93
2023-05-17T21:35:59.692Z,11.88
2023-05-17T21:38:28.133Z,13.00
2023-05-17T21:40:56.737Z,14.25
2023-05-17T21:43:25.264Z,10.10
2023-05-17T21:45:53.713Z,6.18
2023-05-17T21:48:22.116Z,7.57
2023-05-17T21:50:50.872Z,9.07
2023-05-17T21:53:19.103Z,12.38
2023-05-17T21:58:19.454Z,25.25
2023-05-17T22:00:48.097Z,20.42
2023-05-17T22:03:16.503Z,13.18
2023-05-17T22:05:44.881Z,7.90
2023-05-17T22:08:13.255Z,22.88
2023-05-17T22:10:41.920Z,14.77
2023-05-17T22:13:10.256Z,11.13
2023-05-17T22:15:38.732Z,21.17
2023-05-17T22:18:07.300Z,23.73
2023-05-17T22:20:35.706Z,14.15
2023-05-17T22:23:04.167Z,27.55
2023-05-17T22:25:32.642Z,24.95
2023-05-17T22:28:00.971Z,26.33
2023-05-17T22:30:29.809Z,25.80
2023-05-17T22:32:58.445Z,20.80
2023-05-17T22:35:26.713Z,26.67
2023-05-17T22:37:55.068Z,21.48
2023-05-17T22:40:23.495Z,11.82
2023-05-17T22:42:51.788Z,9.95
2023-05-17T22:45:20.172Z,6.85
2023-05-17T22:47:48.850Z,7.50
2023-05-17T22:50:17.169Z,7.47
2023-05-17T22:52:45.460Z,9.05
2023-05-17T22:55:13.958Z,8.50
2023-05-17T22:57:42.323Z,7.20
2023-05-17T23:00:11.029Z,6.38
2023-05-17T23:02:39.518Z,6.53
2023-05-17T23:05:07.909Z,6.28
2023-05-17T23:07:36.318Z,8.52
2023-05-17T23:10:09.497Z,25.00
2023-05-17T23:12:38.395Z,16.05
2023-05-17T23:15:07.385Z,17.27
2023-05-17T23:17:35.606Z,22.02
2023-05-17T23:20:04.664Z,23.55
2023-05-17T23:22:33.035Z,37.35
2023-05-17T23:25:01.541Z,29.45
2023-05-17T23:27:30.903Z,21.65
2023-05-17T23:29:59.597Z,11.55
2023-05-17T23:32:28.511Z,7.78
2023-05-17T23:34:56.786Z,6.25
2023-05-17T23:37:28.326Z,7.13
2023-05-17T23:39:57.142Z,5.30
2023-05-17T23:42:25.635Z,5.15
2023-05-17T23:44:54.241Z,5.25
2023-05-17T23:47:22.535Z,6.60
2023-05-17T23:49:51.080Z,8.93
2023-05-17T23:52:19.338Z,8.02
2023-05-17T23:54:48.458Z,8.13
2023-05-17T23:57:16.841Z,6.47
2023-05-17T23:59:45.595Z,5.43
